sensor_id;sensor_type;location;lat;lon;timestamp;temperature;humidity
65876;HTU21D;52657;51.128;5.938;2024-02-14T00:00:01;11.91;68.55
65876;HTU21D;52657;51.128;5.938;2024-02-14T00:02:30;11.92;68.60
65876;HTU21D;52657;51.128;5.938;2024-02-14T00:04:55;11.89;68.65
65876;HTU21D;52657;51.128;5.938;2024-02-14T00:07:21;11.91;68.58
65876;HTU21D;52657;51.128;5.938;2024-02-14T00:09:47;11.92;68.60
65876;HTU21D;52657;51.128;5.938;2024-02-14T00:12:13;11.90;68.61
65876;HTU21D;52657;51.128;5.938;2024-02-14T00:14:39;11.87;68.84
65876;HTU21D;52657;51.128;5.938;2024-02-14T00:17:05;11.87;68.84
65876;HTU21D;52657;51.128;5.938;2024-02-14T00:19:31;11.82;69.16
65876;HTU21D;52657;51.128;5.938;2024-02-14T00:21:57;11.83;69.25
65876;HTU21D;52657;51.128;5.938;2024-02-14T00:24:23;11.86;69.26
65876;HTU21D;52657;51.128;5.938;2024-02-14T00:26:50;11.88;69.21
65876;HTU21D;52657;51.128;5.938;2024-02-14T00:29:16;11.91;69.20
65876;HTU21D;52657;51.128;5.938;2024-02-14T00:31:42;11.89;69.18
65876;HTU21D;52657;51.128;5.938;2024-02-14T00:34:10;11.93;69.08
65876;HTU21D;52657;51.128;5.938;2024-02-14T00:36:39;11.93;69.10
65876;HTU21D;52657;51.128;5.938;2024-02-14T00:39:05;11.96;69.12
65876;HTU21D;52657;51.128;5.938;2024-02-14T00:41:34;11.87;69.55
65876;HTU21D;52657;51.128;5.938;2024-02-14T00:44:01;11.91;69.36
65876;HTU21D;52657;51.128;5.938;2024-02-14T00:46:29;11.89;69.55
65876;HTU21D;52657;51.128;5.938;2024-02-14T00:48:55;11.86;69.75
65876;HTU21D;52657;51.128;5.938;2024-02-14T00:51:21;11.90;69.58
65876;HTU21D;52657;51.128;5.938;2024-02-14T00:53:47;11.93;69.54
65876;HTU21D;52657;51.128;5.938;2024-02-14T00:56:12;11.97;69.54
65876;HTU21D;52657;51.128;5.938;2024-02-14T00:58:38;11.94;69.61
65876;HTU21D;52657;51.128;5.938;2024-02-14T01:01:05;11.92;69.78
65876;HTU21D;52657;51.128;5.938;2024-02-14T01:03:31;11.88;69.89
65876;HTU21D;52657;51.128;5.938;2024-02-14T01:05:57;11.90;69.95
65876;HTU21D;52657;51.128;5.938;2024-02-14T01:08:26;11.96;69.80
65876;HTU21D;52657;51.128;5.938;2024-02-14T01:10:51;11.96;69.83
65876;HTU21D;52657;51.128;5.938;2024-02-14T01:13:18;11.94;69.85
65876;HTU21D;52657;51.128;5.938;2024-02-14T01:15:44;11.92;69.95
65876;HTU21D;52657;51.128;5.938;2024-02-14T01:18:10;11.98;69.78
65876;HTU21D;52657;51.128;5.938;2024-02-14T01:20:35;11.99;69.71
65876;HTU21D;52657;51.128;5.938;2024-02-14T01:23:03;12.00;69.69
65876;HTU21D;52657;51.128;5.938;2024-02-14T01:25:29;12.01;69.71
65876;HTU21D;52657;51.128;5.938;2024-02-14T01:27:54;12.05;69.65
65876;HTU21D;52657;51.128;5.938;2024-02-14T01:30:21;12.07;69.58
65876;HTU21D;52657;51.128;5.938;2024-02-14T01:32:46;12.08;69.55
65876;HTU21D;52657;51.128;5.938;2024-02-14T01:35:12;12.13;69.46
65876;HTU21D;52657;51.128;5.938;2024-02-14T01:37:38;12.11;69.59
65876;HTU21D;52657;51.128;5.938;2024-02-14T01:40:07;12.11;69.63
65876;HTU21D;52657;51.128;5.938;2024-02-14T01:42:33;12.06;69.74
65876;HTU21D;52657;51.128;5.938;2024-02-14T01:44:58;12.12;69.69
65876;HTU21D;52657;51.128;5.938;2024-02-14T01:47:24;12.11;69.76
65876;HTU21D;52657;51.128;5.938;2024-02-14T01:49:51;12.13;69.76
65876;HTU21D;52657;51.128;5.938;2024-02-14T01:52:26;12.17;69.74
65876;HTU21D;52657;51.128;5.938;2024-02-14T01:54:54;12.25;69.44
65876;HTU21D;52657;51.128;5.938;2024-02-14T01:57:24;12.26;69.41
65876;HTU21D;52657;51.128;5.938;2024-02-14T01:59:51;12.28;69.45
65876;HTU21D;52657;51.128;5.938;2024-02-14T02:02:19;12.27;69.51
65876;HTU21D;52657;51.128;5.938;2024-02-14T02:04:45;12.23;69.72
65876;HTU21D;52657;51.128;5.938;2024-02-14T02:07:11;12.23;69.82
65876;HTU21D;52657;51.128;5.938;2024-02-14T02:09:37;12.23;69.87
65876;HTU21D;52657;51.128;5.938;2024-02-14T02:12:03;12.23;69.90
65876;HTU21D;52657;51.128;5.938;2024-02-14T02:14:33;12.25;69.97
65876;HTU21D;52657;51.128;5.938;2024-02-14T02:16:59;12.26;70.07
65876;HTU21D;52657;51.128;5.938;2024-02-14T02:19:25;12.23;70.20
65876;HTU21D;52657;51.128;5.938;2024-02-14T02:21:50;12.22;70.32
65876;HTU21D;52657;51.128;5.938;2024-02-14T02:24:18;12.25;70.26
65876;HTU21D;52657;51.128;5.938;2024-02-14T02:26:44;12.26;70.35
65876;HTU21D;52657;51.128;5.938;2024-02-14T02:29:10;12.23;70.55
65876;HTU21D;52657;51.128;5.938;2024-02-14T02:31:37;12.20;70.80
65876;HTU21D;52657;51.128;5.938;2024-02-14T02:34:03;12.21;70.75
65876;HTU21D;52657;51.128;5.938;2024-02-14T02:36:29;12.22;70.81
65876;HTU21D;52657;51.128;5.938;2024-02-14T02:38:56;12.20;70.98
65876;HTU21D;52657;51.128;5.938;2024-02-14T02:41:24;12.22;71.10
65876;HTU21D;52657;51.128;5.938;2024-02-14T02:43:50;12.16;71.34
65876;HTU21D;52657;51.128;5.938;2024-02-14T02:46:16;12.17;71.38
65876;HTU21D;52657;51.128;5.938;2024-02-14T02:48:42;12.13;71.48
65876;HTU21D;52657;51.128;5.938;2024-02-14T02:51:07;12.17;71.40
65876;HTU21D;52657;51.128;5.938;2024-02-14T02:53:33;12.18;71.33
65876;HTU21D;52657;51.128;5.938;2024-02-14T02:56:00;12.16;71.53
65876;HTU21D;52657;51.128;5.938;2024-02-14T02:58:26;12.20;71.42
65876;HTU21D;52657;51.128;5.938;2024-02-14T03:00:52;12.17;71.58
65876;HTU21D;52657;51.128;5.938;2024-02-14T03:03:21;12.14;71.98
65876;HTU21D;52657;51.128;5.938;2024-02-14T03:05:47;12.16;72.09
65876;HTU21D;52657;51.128;5.938;2024-02-14T03:08:13;12.21;72.22
65876;HTU21D;52657;51.128;5.938;2024-02-14T03:10:41;12.22;72.32
65876;HTU21D;52657;51.128;5.938;2024-02-14T03:13:07;12.15;72.74
65876;HTU21D;52657;51.128;5.938;2024-02-14T03:15:37;12.14;72.99
65876;HTU21D;52657;51.128;5.938;2024-02-14T03:18:04;12.18;72.95
65876;HTU21D;52657;51.128;5.938;2024-02-14T03:20:35;12.20;72.88
65876;HTU21D;52657;51.128;5.938;2024-02-14T03:23:02;12.17;73.26
65876;HTU21D;52657;51.128;5.938;2024-02-14T03:25:29;12.13;73.37
65876;HTU21D;52657;51.128;5.938;2024-02-14T03:27:55;12.11;73.62
65876;HTU21D;52657;51.128;5.938;2024-02-14T03:30:25;12.03;73.98
65876;HTU21D;52657;51.128;5.938;2024-02-14T03:32:52;12.06;73.82
65876;HTU21D;52657;51.128;5.938;2024-02-14T03:35:19;12.08;73.77
65876;HTU21D;52657;51.128;5.938;2024-02-14T03:37:48;12.08;73.77
65876;HTU21D;52657;51.128;5.938;2024-02-14T03:40:14;12.12;73.64
65876;HTU21D;52657;51.128;5.938;2024-02-14T03:42:40;12.12;73.68
65876;HTU21D;52657;51.128;5.938;2024-02-14T03:45:07;12.15;73.54
65876;HTU21D;52657;51.128;5.938;2024-02-14T03:47:33;12.17;73.40
65876;HTU21D;52657;51.128;5.938;2024-02-14T03:49:59;12.21;73.24
65876;HTU21D;52657;51.128;5.938;2024-02-14T03:52:25;12.19;73.24
65876;HTU21D;52657;51.128;5.938;2024-02-14T03:54:52;12.21;73.23
65876;HTU21D;52657;51.128;5.938;2024-02-14T03:57:18;12.22;73.17
65876;HTU21D;52657;51.128;5.938;2024-02-14T03:59:44;12.26;73.08
65876;HTU21D;52657;51.128;5.938;2024-02-14T04:02:10;12.28;73.02
65876;HTU21D;52657;51.128;5.938;2024-02-14T04:04:41;12.28;72.97
65876;HTU21D;52657;51.128;5.938;2024-02-14T04:07:08;12.29;72.98
65876;HTU21D;52657;51.128;5.938;2024-02-14T04:09:34;12.29;72.99
65876;HTU21D;52657;51.128;5.938;2024-02-14T04:12:00;12.30;72.98
65876;HTU21D;52657;51.128;5.938;2024-02-14T04:14:26;12.29;73.01
65876;HTU21D;52657;51.128;5.938;2024-02-14T04:16:52;12.25;73.21
65876;HTU21D;52657;51.128;5.938;2024-02-14T04:19:21;12.29;73.13
65876;HTU21D;52657;51.128;5.938;2024-02-14T04:21:47;12.33;73.10
65876;HTU21D;52657;51.128;5.938;2024-02-14T04:24:13;12.30;73.38
65876;HTU21D;52657;51.128;5.938;2024-02-14T04:26:38;12.29;73.50
65876;HTU21D;52657;51.128;5.938;2024-02-14T04:29:04;12.21;73.94
65876;HTU21D;52657;51.128;5.938;2024-02-14T04:31:30;12.15;74.51
65876;HTU21D;52657;51.128;5.938;2024-02-14T04:33:57;12.06;75.25
65876;HTU21D;52657;51.128;5.938;2024-02-14T04:36:23;12.03;75.56
65876;HTU21D;52657;51.128;5.938;2024-02-14T04:38:49;12.05;75.83
65876;HTU21D;52657;51.128;5.938;2024-02-14T04:41:16;12.05;76.02
65876;HTU21D;52657;51.128;5.938;2024-02-14T04:43:41;12.06;76.06
65876;HTU21D;52657;51.128;5.938;2024-02-14T04:46:08;12.12;76.06
65876;HTU21D;52657;51.128;5.938;2024-02-14T04:48:34;12.11;76.09
65876;HTU21D;52657;51.128;5.938;2024-02-14T04:51:01;12.11;76.18
65876;HTU21D;52657;51.128;5.938;2024-02-14T04:53:27;12.10;76.19
65876;HTU21D;52657;51.128;5.938;2024-02-14T04:55:53;12.13;76.13
65876;HTU21D;52657;51.128;5.938;2024-02-14T04:58:19;12.08;76.15
65876;HTU21D;52657;51.128;5.938;2024-02-14T05:00:45;12.05;76.45
65876;HTU21D;52657;51.128;5.938;2024-02-14T05:03:11;12.06;76.34
65876;HTU21D;52657;51.128;5.938;2024-02-14T05:05:37;12.07;76.47
65876;HTU21D;52657;51.128;5.938;2024-02-14T05:08:03;12.08;76.47
65876;HTU21D;52657;51.128;5.938;2024-02-14T05:10:30;12.06;76.64
65876;HTU21D;52657;51.128;5.938;2024-02-14T05:12:56;12.07;76.66
65876;HTU21D;52657;51.128;5.938;2024-02-14T05:15:23;12.07;76.88
65876;HTU21D;52657;51.128;5.938;2024-02-14T05:17:49;12.08;76.86
65876;HTU21D;52657;51.128;5.938;2024-02-14T05:20:16;12.06;76.95
65876;HTU21D;52657;51.128;5.938;2024-02-14T05:22:42;12.06;77.00
65876;HTU21D;52657;51.128;5.938;2024-02-14T05:25:08;12.11;76.95
65876;HTU21D;52657;51.128;5.938;2024-02-14T05:27:37;12.15;76.85
65876;HTU21D;52657;51.128;5.938;2024-02-14T05:30:04;12.19;76.76
65876;HTU21D;52657;51.128;5.938;2024-02-14T05:32:39;12.23;76.51
65876;HTU21D;52657;51.128;5.938;2024-02-14T05:35:05;12.28;76.47
65876;HTU21D;52657;51.128;5.938;2024-02-14T05:37:31;12.29;76.41
65876;HTU21D;52657;51.128;5.938;2024-02-14T05:39:57;12.32;76.44
65876;HTU21D;52657;51.128;5.938;2024-02-14T05:42:23;12.32;76.57
65876;HTU21D;52657;51.128;5.938;2024-02-14T05:44:49;12.27;76.74
65876;HTU21D;52657;51.128;5.938;2024-02-14T05:47:23;12.23;76.97
65876;HTU21D;52657;51.128;5.938;2024-02-14T05:49:50;12.28;77.17
65876;HTU21D;52657;51.128;5.938;2024-02-14T05:52:16;12.27;77.09
65876;HTU21D;52657;51.128;5.938;2024-02-14T05:54:44;12.29;77.11
65876;HTU21D;52657;51.128;5.938;2024-02-14T05:57:10;12.32;77.06
65876;HTU21D;52657;51.128;5.938;2024-02-14T05:59:35;12.26;77.24
65876;HTU21D;52657;51.128;5.938;2024-02-14T06:02:04;12.28;77.20
65876;HTU21D;52657;51.128;5.938;2024-02-14T06:04:31;12.30;77.04
65876;HTU21D;52657;51.128;5.938;2024-02-14T06:06:56;12.32;76.94
65876;HTU21D;52657;51.128;5.938;2024-02-14T06:09:25;12.31;76.98
65876;HTU21D;52657;51.128;5.938;2024-02-14T06:11:51;12.33;76.88
65876;HTU21D;52657;51.128;5.938;2024-02-14T06:14:18;12.35;76.81
65876;HTU21D;52657;51.128;5.938;2024-02-14T06:16:44;12.36;76.71
65876;HTU21D;52657;51.128;5.938;2024-02-14T06:19:10;12.41;76.58
65876;HTU21D;52657;51.128;5.938;2024-02-14T06:21:37;12.40;76.55
65876;HTU21D;52657;51.128;5.938;2024-02-14T06:24:03;12.35;76.44
65876;HTU21D;52657;51.128;5.938;2024-02-14T06:26:30;12.41;76.34
65876;HTU21D;52657;51.128;5.938;2024-02-14T06:28:56;12.45;76.18
65876;HTU21D;52657;51.128;5.938;2024-02-14T06:31:23;12.49;75.99
65876;HTU21D;52657;51.128;5.938;2024-02-14T06:33:49;12.49;75.89
65876;HTU21D;52657;51.128;5.938;2024-02-14T06:36:15;12.49;75.89
65876;HTU21D;52657;51.128;5.938;2024-02-14T06:38:40;12.51;75.80
65876;HTU21D;52657;51.128;5.938;2024-02-14T06:41:06;12.44;76.14
65876;HTU21D;52657;51.128;5.938;2024-02-14T06:43:32;12.47;76.03
65876;HTU21D;52657;51.128;5.938;2024-02-14T06:45:58;12.51;75.89
65876;HTU21D;52657;51.128;5.938;2024-02-14T06:48:24;12.50;75.92
65876;HTU21D;52657;51.128;5.938;2024-02-14T06:50:50;12.48;76.05
65876;HTU21D;52657;51.128;5.938;2024-02-14T06:53:17;12.48;76.10
65876;HTU21D;52657;51.128;5.938;2024-02-14T06:55:44;12.51;75.95
65876;HTU21D;52657;51.128;5.938;2024-02-14T06:58:10;12.52;75.77
65876;HTU21D;52657;51.128;5.938;2024-02-14T07:00:36;12.53;75.75
65876;HTU21D;52657;51.128;5.938;2024-02-14T07:03:02;12.55;75.74
65876;HTU21D;52657;51.128;5.938;2024-02-14T07:05:29;12.55;75.70
65876;HTU21D;52657;51.128;5.938;2024-02-14T07:07:55;12.53;75.65
65876;HTU21D;52657;51.128;5.938;2024-02-14T07:10:21;12.53;75.57
65876;HTU21D;52657;51.128;5.938;2024-02-14T07:12:47;12.55;75.47
65876;HTU21D;52657;51.128;5.938;2024-02-14T07:15:12;12.58;75.34
65876;HTU21D;52657;51.128;5.938;2024-02-14T07:17:39;12.60;75.42
65876;HTU21D;52657;51.128;5.938;2024-02-14T07:20:05;12.61;75.32
65876;HTU21D;52657;51.128;5.938;2024-02-14T07:22:31;12.60;75.31
65876;HTU21D;52657;51.128;5.938;2024-02-14T07:24:59;12.59;75.49
65876;HTU21D;52657;51.128;5.938;2024-02-14T07:27:25;12.59;75.50
65876;HTU21D;52657;51.128;5.938;2024-02-14T07:29:51;12.63;75.46
65876;HTU21D;52657;51.128;5.938;2024-02-14T07:32:20;12.64;75.44
65876;HTU21D;52657;51.128;5.938;2024-02-14T07:34:47;12.66;75.38
65876;HTU21D;52657;51.128;5.938;2024-02-14T07:37:13;12.71;75.30
65876;HTU21D;52657;51.128;5.938;2024-02-14T07:39:41;12.73;75.23
65876;HTU21D;52657;51.128;5.938;2024-02-14T07:42:06;12.78;75.13
65876;HTU21D;52657;51.128;5.938;2024-02-14T07:44:32;12.80;75.02
65876;HTU21D;52657;51.128;5.938;2024-02-14T07:46:58;12.81;75.03
65876;HTU21D;52657;51.128;5.938;2024-02-14T07:49:24;12.86;74.94
65876;HTU21D;52657;51.128;5.938;2024-02-14T07:51:49;12.91;74.80
65876;HTU21D;52657;51.128;5.938;2024-02-14T07:54:15;13.00;74.39
65876;HTU21D;52657;51.128;5.938;2024-02-14T07:56:41;13.03;74.30
65876;HTU21D;52657;51.128;5.938;2024-02-14T07:59:10;13.05;74.05
65876;HTU21D;52657;51.128;5.938;2024-02-14T08:01:37;13.05;74.09
65876;HTU21D;52657;51.128;5.938;2024-02-14T08:04:03;13.11;74.05
65876;HTU21D;52657;51.128;5.938;2024-02-14T08:06:30;13.14;73.93
65876;HTU21D;52657;51.128;5.938;2024-02-14T08:08:55;13.11;73.78
65876;HTU21D;52657;51.128;5.938;2024-02-14T08:11:27;13.14;73.78
65876;HTU21D;52657;51.128;5.938;2024-02-14T08:13:53;13.19;73.61
65876;HTU21D;52657;51.128;5.938;2024-02-14T08:16:21;13.19;73.58
65876;HTU21D;52657;51.128;5.938;2024-02-14T08:18:47;13.25;73.51
65876;HTU21D;52657;51.128;5.938;2024-02-14T08:21:14;13.27;73.28
65876;HTU21D;52657;51.128;5.938;2024-02-14T08:23:39;13.33;73.12
65876;HTU21D;52657;51.128;5.938;2024-02-14T08:26:07;13.35;72.99
65876;HTU21D;52657;51.128;5.938;2024-02-14T08:28:39;13.40;72.90
65876;HTU21D;52657;51.128;5.938;2024-02-14T08:31:12;13.47;72.74
65876;HTU21D;52657;51.128;5.938;2024-02-14T08:33:38;13.51;72.53
65876;HTU21D;52657;51.128;5.938;2024-02-14T08:36:06;13.59;72.41
65876;HTU21D;52657;51.128;5.938;2024-02-14T08:38:33;13.66;72.26
65876;HTU21D;52657;51.128;5.938;2024-02-14T08:41:01;13.77;72.00
65876;HTU21D;52657;51.128;5.938;2024-02-14T08:43:27;13.85;71.77
65876;HTU21D;52657;51.128;5.938;2024-02-14T08:45:56;13.91;71.27
65876;HTU21D;52657;51.128;5.938;2024-02-14T08:48:23;13.89;70.84
65876;HTU21D;52657;51.128;5.938;2024-02-14T08:50:49;13.93;71.05
65876;HTU21D;52657;51.128;5.938;2024-02-14T08:53:16;13.98;70.94
65876;HTU21D;52657;51.128;5.938;2024-02-14T08:55:42;14.03;70.60
65876;HTU21D;52657;51.128;5.938;2024-02-14T08:58:08;14.07;70.17
65876;HTU21D;52657;51.128;5.938;2024-02-14T09:00:39;14.06;70.27
65876;HTU21D;52657;51.128;5.938;2024-02-14T09:03:06;14.06;70.21
65876;HTU21D;52657;51.128;5.938;2024-02-14T09:05:32;14.08;70.22
65876;HTU21D;52657;51.128;5.938;2024-02-14T09:07:58;14.11;70.10
65876;HTU21D;52657;51.128;5.938;2024-02-14T09:10:25;14.14;70.01
65876;HTU21D;52657;51.128;5.938;2024-02-14T09:12:51;14.11;69.96
65876;HTU21D;52657;51.128;5.938;2024-02-14T09:15:19;14.10;70.08
65876;HTU21D;52657;51.128;5.938;2024-02-14T09:17:45;14.10;70.12
65876;HTU21D;52657;51.128;5.938;2024-02-14T09:20:11;14.11;70.18
65876;HTU21D;52657;51.128;5.938;2024-02-14T09:22:39;14.17;70.07
65876;HTU21D;52657;51.128;5.938;2024-02-14T09:25:07;14.23;69.97
65876;HTU21D;52657;51.128;5.938;2024-02-14T09:27:35;14.19;69.83
65876;HTU21D;52657;51.128;5.938;2024-02-14T09:30:05;14.11;69.98
65876;HTU21D;52657;51.128;5.938;2024-02-14T09:32:33;14.12;70.11
65876;HTU21D;52657;51.128;5.938;2024-02-14T09:35:01;14.13;70.27
65876;HTU21D;52657;51.128;5.938;2024-02-14T09:37:30;14.18;70.40
65876;HTU21D;52657;51.128;5.938;2024-02-14T09:39:56;14.20;70.45
65876;HTU21D;52657;51.128;5.938;2024-02-14T09:42:28;14.23;70.33
65876;HTU21D;52657;51.128;5.938;2024-02-14T09:44:58;14.24;70.29
65876;HTU21D;52657;51.128;5.938;2024-02-14T09:47:27;14.25;70.35
65876;HTU21D;52657;51.128;5.938;2024-02-14T09:49:57;14.24;70.49
65876;HTU21D;52657;51.128;5.938;2024-02-14T09:52:23;14.21;70.68
65876;HTU21D;52657;51.128;5.938;2024-02-14T09:54:52;14.23;70.74
65876;HTU21D;52657;51.128;5.938;2024-02-14T09:57:19;14.29;70.99
65876;HTU21D;52657;51.128;5.938;2024-02-14T10:00:00;14.36;71.05
65876;HTU21D;52657;51.128;5.938;2024-02-14T10:02:30;14.37;71.01
65876;HTU21D;52657;51.128;5.938;2024-02-14T10:04:58;14.34;71.25
65876;HTU21D;52657;51.128;5.938;2024-02-14T10:07:24;14.36;71.73
65876;HTU21D;52657;51.128;5.938;2024-02-14T10:09:53;14.29;72.06
65876;HTU21D;52657;51.128;5.938;2024-02-14T10:12:21;14.27;72.21
65876;HTU21D;52657;51.128;5.938;2024-02-14T10:14:50;14.26;72.50
65876;HTU21D;52657;51.128;5.938;2024-02-14T10:17:21;14.28;72.59
65876;HTU21D;52657;51.128;5.938;2024-02-14T10:20:01;14.29;72.46
65876;HTU21D;52657;51.128;5.938;2024-02-14T10:22:38;14.29;72.41
65876;HTU21D;52657;51.128;5.938;2024-02-14T10:25:06;14.29;72.52
65876;HTU21D;52657;51.128;5.938;2024-02-14T10:27:39;14.28;72.55
65876;HTU21D;52657;51.128;5.938;2024-02-14T10:30:08;14.30;72.59
65876;HTU21D;52657;51.128;5.938;2024-02-14T10:35:44;14.30;72.64
65876;HTU21D;52657;51.128;5.938;2024-02-14T10:38:11;14.27;72.61
65876;HTU21D;52657;51.128;5.938;2024-02-14T10:40:38;14.25;72.61
65876;HTU21D;52657;51.128;5.938;2024-02-14T10:43:08;14.26;72.75
65876;HTU21D;52657;51.128;5.938;2024-02-14T10:45:40;14.32;72.62
65876;HTU21D;52657;51.128;5.938;2024-02-14T10:48:11;14.40;72.48
65876;HTU21D;52657;51.128;5.938;2024-02-14T10:50:43;14.47;72.51
65876;HTU21D;52657;51.128;5.938;2024-02-14T10:53:14;14.54;72.34
65876;HTU21D;52657;51.128;5.938;2024-02-14T10:55:49;14.64;72.16
65876;HTU21D;52657;51.128;5.938;2024-02-14T10:58:16;14.64;71.94
65876;HTU21D;52657;51.128;5.938;2024-02-14T11:00:47;14.65;71.90
65876;HTU21D;52657;51.128;5.938;2024-02-14T11:03:13;14.60;71.96
65876;HTU21D;52657;51.128;5.938;2024-02-14T11:05:53;14.52;72.15
65876;HTU21D;52657;51.128;5.938;2024-02-14T11:08:29;14.51;72.33
65876;HTU21D;52657;51.128;5.938;2024-02-14T11:10:59;14.52;72.83
65876;HTU21D;52657;51.128;5.938;2024-02-14T11:13:26;14.54;73.25
65876;HTU21D;52657;51.128;5.938;2024-02-14T11:16:02;14.51;73.48
65876;HTU21D;52657;51.128;5.938;2024-02-14T11:18:29;14.49;73.71
65876;HTU21D;52657;51.128;5.938;2024-02-14T11:20:55;14.43;74.06
65876;HTU21D;52657;51.128;5.938;2024-02-14T11:23:23;14.51;74.31
65876;HTU21D;52657;51.128;5.938;2024-02-14T11:25:49;14.50;74.26
65876;HTU21D;52657;51.128;5.938;2024-02-14T11:28:17;14.54;74.56
65876;HTU21D;52657;51.128;5.938;2024-02-14T11:30:45;14.47;74.57
65876;HTU21D;52657;51.128;5.938;2024-02-14T11:33:20;14.44;75.03
65876;HTU21D;52657;51.128;5.938;2024-02-14T11:35:50;14.40;75.09
65876;HTU21D;52657;51.128;5.938;2024-02-14T11:38:17;14.42;75.15
65876;HTU21D;52657;51.128;5.938;2024-02-14T11:40:49;14.40;75.30
65876;HTU21D;52657;51.128;5.938;2024-02-14T11:43:17;14.39;75.33
65876;HTU21D;52657;51.128;5.938;2024-02-14T11:45:44;14.40;75.51
65876;HTU21D;52657;51.128;5.938;2024-02-14T11:48:14;14.45;75.38
65876;HTU21D;52657;51.128;5.938;2024-02-14T11:50:41;14.45;75.40
65876;HTU21D;52657;51.128;5.938;2024-02-14T11:53:10;14.48;75.34
65876;HTU21D;52657;51.128;5.938;2024-02-14T11:55:38;14.56;75.12
65876;HTU21D;52657;51.128;5.938;2024-02-14T11:58:11;14.60;74.91
65876;HTU21D;52657;51.128;5.938;2024-02-14T12:00:39;14.63;74.45
65876;HTU21D;52657;51.128;5.938;2024-02-14T12:03:24;14.65;74.35
65876;HTU21D;52657;51.128;5.938;2024-02-14T12:05:52;14.65;74.35
65876;HTU21D;52657;51.128;5.938;2024-02-14T12:08:19;14.66;74.39
65876;HTU21D;52657;51.128;5.938;2024-02-14T12:10:54;14.72;74.14
65876;HTU21D;52657;51.128;5.938;2024-02-14T12:13:23;14.72;74.05
65876;HTU21D;52657;51.128;5.938;2024-02-14T12:15:51;14.75;73.93
65876;HTU21D;52657;51.128;5.938;2024-02-14T12:18:18;14.79;73.96
65876;HTU21D;52657;51.128;5.938;2024-02-14T12:20:45;14.80;73.92
65876;HTU21D;52657;51.128;5.938;2024-02-14T12:23:19;14.83;74.01
65876;HTU21D;52657;51.128;5.938;2024-02-14T12:25:50;14.84;74.03
65876;HTU21D;52657;51.128;5.938;2024-02-14T12:28:19;14.84;74.22
65876;HTU21D;52657;51.128;5.938;2024-02-14T12:30:48;14.88;74.53
65876;HTU21D;52657;51.128;5.938;2024-02-14T12:33:16;14.88;74.51
65876;HTU21D;52657;51.128;5.938;2024-02-14T12:35:46;14.87;74.63
65876;HTU21D;52657;51.128;5.938;2024-02-14T12:38:35;14.83;74.79
65876;HTU21D;52657;51.128;5.938;2024-02-14T12:41:00;14.79;75.10
65876;HTU21D;52657;51.128;5.938;2024-02-14T12:43:27;14.78;75.24
65876;HTU21D;52657;51.128;5.938;2024-02-14T12:45:53;14.73;75.28
65876;HTU21D;52657;51.128;5.938;2024-02-14T12:48:25;14.71;75.49
65876;HTU21D;52657;51.128;5.938;2024-02-14T12:50:55;14.73;75.46
65876;HTU21D;52657;51.128;5.938;2024-02-14T12:53:23;14.73;75.63
65876;HTU21D;52657;51.128;5.938;2024-02-14T12:55:52;14.77;75.95
65876;HTU21D;52657;51.128;5.938;2024-02-14T12:58:18;14.71;75.99
65876;HTU21D;52657;51.128;5.938;2024-02-14T13:00:44;14.78;76.22
65876;HTU21D;52657;51.128;5.938;2024-02-14T13:03:11;14.78;76.34
65876;HTU21D;52657;51.128;5.938;2024-02-14T13:05:40;14.75;76.71
65876;HTU21D;52657;51.128;5.938;2024-02-14T13:08:07;14.71;76.63
65876;HTU21D;52657;51.128;5.938;2024-02-14T13:10:34;14.68;77.30
65876;HTU21D;52657;51.128;5.938;2024-02-14T13:13:00;14.69;77.15
65876;HTU21D;52657;51.128;5.938;2024-02-14T13:15:26;14.68;77.23
65876;HTU21D;52657;51.128;5.938;2024-02-14T13:17:52;14.68;77.21
65876;HTU21D;52657;51.128;5.938;2024-02-14T13:20:19;14.64;77.49
65876;HTU21D;52657;51.128;5.938;2024-02-14T13:22:47;14.60;77.72
65876;HTU21D;52657;51.128;5.938;2024-02-14T13:25:13;14.62;77.85
65876;HTU21D;52657;51.128;5.938;2024-02-14T13:27:40;14.63;78.01
65876;HTU21D;52657;51.128;5.938;2024-02-14T13:30:06;14.60;77.96
65876;HTU21D;52657;51.128;5.938;2024-02-14T13:32:35;14.59;78.03
65876;HTU21D;52657;51.128;5.938;2024-02-14T13:35:01;14.58;78.08
65876;HTU21D;52657;51.128;5.938;2024-02-14T13:37:26;14.57;78.11
65876;HTU21D;52657;51.128;5.938;2024-02-14T13:39:52;14.57;78.28
65876;HTU21D;52657;51.128;5.938;2024-02-14T13:42:18;14.57;78.27
65876;HTU21D;52657;51.128;5.938;2024-02-14T13:44:44;14.57;78.46
65876;HTU21D;52657;51.128;5.938;2024-02-14T13:47:10;14.56;78.44
65876;HTU21D;52657;51.128;5.938;2024-02-14T13:49:39;14.57;78.48
65876;HTU21D;52657;51.128;5.938;2024-02-14T13:52:04;14.56;78.61
65876;HTU21D;52657;51.128;5.938;2024-02-14T13:54:30;14.60;78.57
65876;HTU21D;52657;51.128;5.938;2024-02-14T13:56:56;14.56;78.75
65876;HTU21D;52657;51.128;5.938;2024-02-14T13:59:22;14.56;79.06
65876;HTU21D;52657;51.128;5.938;2024-02-14T14:01:48;14.59;78.85
65876;HTU21D;52657;51.128;5.938;2024-02-14T14:04:15;14.57;78.97
65876;HTU21D;52657;51.128;5.938;2024-02-14T14:06:47;14.57;78.95
65876;HTU21D;52657;51.128;5.938;2024-02-14T14:09:13;14.56;79.08
65876;HTU21D;52657;51.128;5.938;2024-02-14T14:11:39;14.58;79.01
65876;HTU21D;52657;51.128;5.938;2024-02-14T14:14:05;14.59;79.04
65876;HTU21D;52657;51.128;5.938;2024-02-14T14:16:31;14.58;79.23
65876;HTU21D;52657;51.128;5.938;2024-02-14T14:19:00;14.60;79.17
65876;HTU21D;52657;51.128;5.938;2024-02-14T14:21:26;14.62;79.21
65876;HTU21D;52657;51.128;5.938;2024-02-14T14:23:52;14.64;79.19
65876;HTU21D;52657;51.128;5.938;2024-02-14T14:26:21;14.60;79.28
65876;HTU21D;52657;51.128;5.938;2024-02-14T14:28:47;14.59;79.49
65876;HTU21D;52657;51.128;5.938;2024-02-14T14:31:13;14.63;79.25
65876;HTU21D;52657;51.128;5.938;2024-02-14T14:33:39;14.63;79.21
65876;HTU21D;52657;51.128;5.938;2024-02-14T14:36:05;14.60;79.22
65876;HTU21D;52657;51.128;5.938;2024-02-14T14:38:31;14.58;79.30
65876;HTU21D;52657;51.128;5.938;2024-02-14T14:40:57;14.64;79.27
65876;HTU21D;52657;51.128;5.938;2024-02-14T14:43:24;14.63;79.27
65876;HTU21D;52657;51.128;5.938;2024-02-14T14:45:50;14.58;79.32
65876;HTU21D;52657;51.128;5.938;2024-02-14T14:48:19;14.58;79.57
65876;HTU21D;52657;51.128;5.938;2024-02-14T14:50:44;14.63;79.42
65876;HTU21D;52657;51.128;5.938;2024-02-14T14:53:10;14.66;79.39
65876;HTU21D;52657;51.128;5.938;2024-02-14T14:55:54;14.68;79.29
65876;HTU21D;52657;51.128;5.938;2024-02-14T14:58:23;14.71;79.23
65876;HTU21D;52657;51.128;5.938;2024-02-14T15:00:56;14.70;79.21
65876;HTU21D;52657;51.128;5.938;2024-02-14T15:03:26;14.69;79.24
65876;HTU21D;52657;51.128;5.938;2024-02-14T15:05:54;14.65;79.29
65876;HTU21D;52657;51.128;5.938;2024-02-14T15:08:23;14.64;79.49
65876;HTU21D;52657;51.128;5.938;2024-02-14T15:10:54;14.70;79.30
65876;HTU21D;52657;51.128;5.938;2024-02-14T15:13:24;14.70;79.37
65876;HTU21D;52657;51.128;5.938;2024-02-14T15:15:51;14.69;79.23
65876;HTU21D;52657;51.128;5.938;2024-02-14T15:18:23;14.68;79.34